createdAt,value
2019-03-08T00:01:18.450Z,98697.47
2019-03-08T00:03:45.414Z,98694.02
2019-03-08T00:06:12.727Z,98695.76
2019-03-08T00:08:39.650Z,98700.92
2019-03-08T00:11:06.625Z,98700.39
2019-03-08T00:13:33.573Z,98707.17
2019-03-08T00:16:00.874Z,98703.34
2019-03-08T00:18:27.850Z,98704.63
2019-03-08T00:20:54.786Z,98703.34
2019-03-08T00:23:21.741Z,98699.12
2019-03-08T00:25:49.699Z,98686.96
2019-03-08T00:28:16.995Z,98692.13
2019-03-08T00:30:44.233Z,98683.70
2019-03-08T00:33:11.188Z,98690.94
2019-03-08T00:35:38.173Z,98687.11
2019-03-08T00:38:05.119Z,98685.84
2019-03-08T00:40:32.433Z,98688.45
2019-03-08T00:43:00.089Z,98695.01
2019-03-08T00:45:27.045Z,98703.20
2019-03-08T00:47:53.983Z,98701.19
2019-03-08T00:50:20.892Z,98703.39
2019-03-08T00:52:48.184Z,98694.19
2019-03-08T00:55:15.164Z,98696.33
2019-03-08T00:57:42.691Z,98690.77
2019-03-08T01:00:09.810Z,98696.22
2019-03-08T01:02:36.679Z,98695.88
2019-03-08T01:05:04.046Z,98690.80
2019-03-08T01:07:31.293Z,98686.14
2019-03-08T01:09:58.554Z,98684.00
2019-03-08T01:12:25.796Z,98676.13
2019-03-08T01:14:52.742Z,98671.22
2019-03-08T01:17:20.308Z,98661.20
2019-03-08T01:19:47.277Z,98660.83
2019-03-08T01:22:14.241Z,98654.28
2019-03-08T01:24:41.556Z,98656.83
2019-03-08T01:27:08.796Z,98668.30
2019-03-08T01:29:36.068Z,98665.28
2019-03-08T01:32:03.043Z,98648.78
2019-03-08T01:34:29.993Z,98659.94
2019-03-08T01:36:56.973Z,98654.17
2019-03-08T01:39:23.906Z,98654.17
2019-03-08T01:41:50.845Z,98655.52
2019-03-08T01:44:18.042Z,98641.44
2019-03-08T01:46:44.998Z,98642.16
2019-03-08T01:49:11.974Z,98645.98
2019-03-08T01:51:38.932Z,98636.16
2019-03-08T01:54:05.869Z,98642.28
2019-03-08T01:56:32.819Z,98624.83
2019-03-08T01:58:59.798Z,98628.21
2019-03-08T02:01:26.776Z,98625.97
2019-03-08T02:03:53.722Z,98625.85
2019-03-08T02:06:20.688Z,98618.73
2019-03-08T02:08:48.016Z,98619.11
2019-03-08T02:11:15.000Z,98621.59
2019-03-08T02:13:41.964Z,98614.33
2019-03-08T02:16:09.270Z,98609.70
2019-03-08T02:18:36.212Z,98614.02
2019-03-08T02:21:06.811Z,98609.88
2019-03-08T02:23:31.742Z,98603.11
2019-03-08T02:25:58.717Z,98604.56
2019-03-08T02:28:25.661Z,98598.64
2019-03-08T02:30:52.863Z,98606.19
2019-03-08T02:33:19.817Z,98606.00
2019-03-08T02:35:46.766Z,98611.78
2019-03-08T02:38:14.023Z,98598.30
2019-03-08T02:40:41.316Z,98607.02
2019-03-08T02:43:08.629Z,98614.17
2019-03-08T02:45:35.500Z,98608.55
2019-03-08T02:48:02.930Z,98601.62
2019-03-08T02:50:30.286Z,98606.69
2019-03-08T02:52:57.272Z,98594.81
2019-03-08T02:55:24.584Z,98599.07
2019-03-08T02:57:52.129Z,98607.55
2019-03-08T03:00:19.389Z,98598.77
2019-03-08T03:02:47.425Z,98607.68
2019-03-08T03:05:14.470Z,98606.06
2019-03-08T03:07:42.420Z,98606.00
2019-03-08T03:10:09.427Z,98605.13
2019-03-08T03:12:36.625Z,98606.41
2019-03-08T03:15:03.555Z,98587.02
2019-03-08T03:17:30.497Z,98596.55
2019-03-08T03:19:57.752Z,98594.66
2019-03-08T03:22:24.712Z,98586.83
2019-03-08T03:24:51.652Z,98595.28
2019-03-08T03:27:18.610Z,98598.61
2019-03-08T03:29:45.886Z,98588.16
2019-03-08T03:32:13.482Z,98603.77
2019-03-08T03:34:40.434Z,98600.00
2019-03-08T03:37:07.682Z,98604.60
2019-03-08T03:39:34.613Z,98599.02
2019-03-08T03:42:01.588Z,98606.31
2019-03-08T03:44:28.552Z,98606.50
2019-03-08T03:46:55.965Z,98604.01
2019-03-08T03:49:22.958Z,98608.20
2019-03-08T03:51:49.913Z,98602.18
2019-03-08T03:54:18.143Z,98600.97
2019-03-08T03:56:45.108Z,98614.27
2019-03-08T03:59:12.353Z,98608.08
2019-03-08T04:01:39.319Z,98605.13
2019-03-08T04:06:38.905Z,98609.60
2019-03-08T04:09:05.847Z,98610.22
2019-03-08T04:11:32.797Z,98604.56
2019-03-08T04:13:59.750Z,98609.16
2019-03-08T04:16:27.012Z,98605.97
2019-03-08T04:18:54.883Z,98597.17
2019-03-08T04:21:21.825Z,98593.73
2019-03-08T04:23:49.179Z,98598.45
2019-03-08T04:26:16.125Z,98606.40
2019-03-08T04:28:43.111Z,98595.90
2019-03-08T04:31:10.421Z,98610.69
2019-03-08T04:33:38.449Z,98604.20
2019-03-08T04:36:06.877Z,98593.88
2019-03-08T04:38:33.797Z,98594.38
2019-03-08T04:41:01.326Z,98604.25
2019-03-08T04:43:28.315Z,98609.23
2019-03-08T04:45:55.247Z,98601.09
2019-03-08T04:48:22.509Z,98601.90
2019-03-08T04:50:49.762Z,98609.95
2019-03-08T04:53:16.784Z,98615.41
2019-03-08T04:55:44.072Z,98615.91
2019-03-08T04:58:11.041Z,98615.04
2019-03-08T05:00:38.033Z,98630.27
2019-03-08T05:03:05.324Z,98621.78
2019-03-08T05:05:32.280Z,98620.20
2019-03-08T05:07:59.414Z,98618.95
2019-03-08T05:10:26.772Z,98620.47
2019-03-08T05:12:54.179Z,98621.61
2019-03-08T05:15:25.183Z,98608.41
2019-03-08T05:17:52.660Z,98612.29
2019-03-08T05:20:22.677Z,98623.50
2019-03-08T05:22:49.601Z,98619.06
2019-03-08T05:25:16.646Z,98617.61
2019-03-08T05:27:43.769Z,98623.48
2019-03-08T05:30:10.846Z,98617.30
2019-03-08T05:32:38.223Z,98623.89
2019-03-08T05:35:05.168Z,98633.96
2019-03-08T05:37:32.174Z,98621.53
2019-03-08T05:39:59.448Z,98624.14
2019-03-08T05:42:26.812Z,98634.27
2019-03-08T05:44:54.186Z,98630.95
2019-03-08T05:47:21.135Z,98633.62
2019-03-08T05:49:48.083Z,98646.48
2019-03-08T05:52:15.060Z,98643.81
2019-03-08T05:54:42.350Z,98647.13
2019-03-08T05:57:10.727Z,98652.95
2019-03-08T05:59:37.935Z,98651.27
2019-03-08T06:02:05.339Z,98643.75
2019-03-08T06:04:33.926Z,98653.38
2019-03-08T06:07:00.890Z,98657.33
2019-03-08T06:09:27.893Z,98660.37
2019-03-08T06:11:55.699Z,98658.72
2019-03-08T06:14:22.692Z,98661.52
2019-03-08T06:16:49.841Z,98663.98
2019-03-08T06:19:16.822Z,98656.34
2019-03-08T06:21:43.778Z,98655.09
2019-03-08T06:24:10.742Z,98659.50
2019-03-08T06:26:37.719Z,98671.34
2019-03-08T06:29:04.662Z,98658.97
2019-03-08T06:31:31.936Z,98683.58
2019-03-08T06:33:59.270Z,98683.52
2019-03-08T06:36:26.666Z,98692.00
2019-03-08T06:38:53.638Z,98702.08
2019-03-08T06:41:20.590Z,98702.94
2019-03-08T06:43:47.567Z,98711.98
2019-03-08T06:46:14.532Z,98709.86
2019-03-08T06:48:42.238Z,98711.11
2019-03-08T06:51:09.881Z,98726.91
2019-03-08T06:53:36.834Z,98722.02
2019-03-08T06:56:03.829Z,98721.23
2019-03-08T06:58:30.817Z,98736.98
2019-03-08T07:00:58.311Z,98732.33
2019-03-08T07:03:25.362Z,98720.42
2019-03-08T07:05:52.340Z,98748.40
2019-03-08T07:08:19.473Z,98735.41
2019-03-08T07:10:46.774Z,98751.13
2019-03-08T07:13:14.073Z,98749.98
2019-03-08T07:15:41.480Z,98737.89
2019-03-08T07:18:12.612Z,98760.81
2019-03-08T07:20:37.357Z,98754.59
2019-03-08T07:23:04.497Z,98755.89
2019-03-08T07:25:32.197Z,98758.57
2019-03-08T07:27:59.138Z,98782.63
2019-03-08T07:30:26.449Z,98777.16
2019-03-08T07:32:53.392Z,98790.94
2019-03-08T07:35:21.994Z,98803.97
2019-03-08T07:37:49.322Z,98812.28
2019-03-08T07:40:16.285Z,98812.35
2019-03-08T07:42:45.078Z,98801.30
2019-03-08T07:45:13.437Z,98826.04
2019-03-08T07:47:40.377Z,98816.12
2019-03-08T07:50:07.359Z,98824.46
2019-03-08T07:52:34.353Z,98832.11
2019-03-08T07:55:01.338Z,98840.80
2019-03-08T07:57:28.657Z,98841.79
2019-03-08T07:59:55.914Z,98838.08
2019-03-08T08:02:23.282Z,98854.55
2019-03-08T08:04:50.269Z,98858.37
2019-03-08T08:07:17.589Z,98871.00
2019-03-08T08:09:58.521Z,98872.11
2019-03-08T08:12:27.625Z,98878.92
2019-03-08T08:14:54.565Z,98891.23
2019-03-08T08:17:21.527Z,98903.09
2019-03-08T08:19:48.520Z,98895.18
2019-03-08T08:22:15.487Z,98913.16
2019-03-08T08:24:42.420Z,98917.35
2019-03-08T08:27:09.739Z,98925.84
2019-03-08T08:29:36.747Z,98926.37
2019-03-08T08:32:03.851Z,98924.69
2019-03-08T08:34:30.799Z,98929.00
2019-03-08T08:36:58.184Z,98935.73
2019-03-08T08:39:25.450Z,98938.48
2019-03-08T08:41:52.521Z,98942.59
2019-03-08T08:44:19.672Z,98954.80
2019-03-08T08:46:46.643Z,98963.55
2019-03-08T08:49:13.604Z,98979.13
2019-03-08T08:51:40.543Z,98952.45
2019-03-08T08:54:07.505Z,98980.19
2019-03-08T08:56:34.503Z,98978.56
2019-03-08T08:59:01.770Z,98975.52
2019-03-08T09:01:29.022Z,98969.14
2019-03-08T09:03:55.987Z,98999.16
2019-03-08T09:06:22.947Z,99000.31
2019-03-08T09:08:49.899Z,98990.78
2019-03-08T09:11:16.867Z,99005.19
2019-03-08T09:13:45.303Z,99006.39
2019-03-08T09:16:12.247Z,99000.84
2019-03-08T09:18:39.512Z,98997.31
2019-03-08T09:21:06.862Z,98980.52
2019-03-08T09:23:33.821Z,99004.74
2019-03-08T09:26:00.783Z,98997.98
2019-03-08T09:28:27.760Z,99012.95
2019-03-08T09:30:55.018Z,99006.09
2019-03-08T09:33:22.027Z,99023.94
2019-03-08T09:35:49.322Z,99027.59
2019-03-08T09:38:17.540Z,99032.80
2019-03-08T09:40:45.828Z,99031.09
2019-03-08T09:43:13.126Z,99031.96
2019-03-08T09:45:40.030Z,99032.20
2019-03-08T09:48:07.176Z,99039.36
2019-03-08T09:50:34.605Z,99043.19
2019-03-08T09:53:02.551Z,99046.06
2019-03-08T09:55:29.931Z,99061.31
2019-03-08T09:57:56.882Z,99057.38
2019-03-08T10:00:24.234Z,99070.54
2019-03-08T10:02:51.582Z,99079.79
2019-03-08T10:05:18.537Z,99084.46
2019-03-08T10:07:46.096Z,99099.17
2019-03-08T10:10:13.075Z,99092.73
2019-03-08T10:12:40.034Z,99097.11
2019-03-08T10:15:06.988Z,99093.22
2019-03-08T10:17:33.955Z,99094.82
2019-03-08T10:20:00.902Z,99100.15
2019-03-08T10:22:27.846Z,99118.91
2019-03-08T10:24:55.176Z,99109.45
2019-03-08T10:27:22.474Z,99122.52
2019-03-08T10:29:49.736Z,99111.30
2019-03-08T10:32:16.882Z,99120.15
2019-03-08T10:34:44.127Z,99138.83
2019-03-08T10:37:11.101Z,99133.70
2019-03-08T10:39:38.611Z,99142.14
2019-03-08T10:42:05.853Z,99129.45
2019-03-08T10:44:32.801Z,99132.45
2019-03-08T10:46:59.953Z,99146.05
2019-03-08T10:49:27.116Z,99140.75
2019-03-08T10:51:54.105Z,99134.75
2019-03-08T10:54:22.160Z,99137.17
2019-03-08T10:56:49.126Z,99147.32
2019-03-08T10:59:16.205Z,99156.74
2019-03-08T11:01:43.241Z,99157.01
2019-03-08T11:04:10.193Z,99154.64
2019-03-08T11:06:37.188Z,99145.59
2019-03-08T11:09:04.535Z,99161.69
2019-03-08T11:11:33.111Z,99171.69
2019-03-08T11:14:00.115Z,99171.70
2019-03-08T11:16:27.079Z,99167.33
2019-03-08T11:18:54.346Z,99171.46
2019-03-08T11:21:21.225Z,99189.88
2019-03-08T11:23:48.175Z,99202.31
2019-03-08T11:26:15.187Z,99211.44
2019-03-08T11:28:42.467Z,99226.71
2019-03-08T11:31:11.809Z,99225.23
2019-03-08T11:33:38.777Z,99220.77
2019-03-08T11:36:07.314Z,99226.19
2019-03-08T11:38:34.849Z,99240.80
2019-03-08T11:41:01.857Z,99228.05
2019-03-08T11:43:28.902Z,99242.97
2019-03-08T11:45:56.432Z,99244.03
2019-03-08T11:48:25.215Z,99241.10
2019-03-08T11:50:52.158Z,99250.31
2019-03-08T11:53:19.224Z,99244.58
2019-03-08T11:55:46.259Z,99255.52
2019-03-08T11:58:13.181Z,99261.70
2019-03-08T12:00:40.422Z,99261.84
2019-03-08T12:03:08.076Z,99261.98
2019-03-08T12:05:35.109Z,99269.54
2019-03-08T12:08:02.072Z,99263.43
2019-03-08T12:10:29.158Z,99270.41
2019-03-08T12:12:57.084Z,99269.40
2019-03-08T12:15:24.373Z,99257.13
2019-03-08T12:17:51.336Z,99268.23
2019-03-08T12:20:18.509Z,99273.17
2019-03-08T12:22:45.806Z,99271.63
2019-03-08T12:25:13.162Z,99278.63
2019-03-08T12:27:40.605Z,99281.99
2019-03-08T12:30:07.872Z,99277.69
2019-03-08T12:32:34.870Z,99281.83
2019-03-08T12:35:01.831Z,99278.66
2019-03-08T12:37:29.108Z,99284.23
2019-03-08T12:39:57.491Z,99282.54
2019-03-08T12:42:24.763Z,99291.83
2019-03-08T12:44:51.686Z,99294.38
2019-03-08T12:47:18.707Z,99299.39
2019-03-08T12:49:46.000Z,99289.92
2019-03-08T12:52:13.649Z,99293.70
2019-03-08T12:54:40.629Z,99305.92
2019-03-08T12:57:07.897Z,99304.98
2019-03-08T12:59:34.957Z,99310.08
2019-03-08T13:02:02.269Z,99313.02
2019-03-08T13:04:30.653Z,99310.88
2019-03-08T13:06:57.614Z,99312.91
2019-03-08T13:09:24.962Z,99301.42
2019-03-08T13:11:52.324Z,99312.84
2019-03-08T13:14:19.290Z,99316.67
2019-03-08T13:16:46.634Z,99310.29
2019-03-08T13:19:13.599Z,99309.80
2019-03-08T13:21:40.505Z,99305.56
2019-03-08T13:24:07.761Z,99310.60
2019-03-08T13:26:35.790Z,99305.56
2019-03-08T13:29:03.722Z,99314.05
2019-03-08T13:31:31.067Z,99324.25
2019-03-08T13:33:58.012Z,99334.05
2019-03-08T13:36:25.000Z,99337.52
2019-03-08T13:38:52.295Z,99340.13
2019-03-08T13:41:19.559Z,99334.70
2019-03-08T13:43:46.896Z,99350.91
2019-03-08T13:46:13.907Z,99356.12
2019-03-08T13:48:40.976Z,99357.77
2019-03-08T13:51:07.889Z,99354.79
2019-03-08T13:53:34.852Z,99358.23
2019-03-08T13:56:02.239Z,99354.21
2019-03-08T13:58:29.531Z,99364.25
2019-03-08T14:00:56.504Z,99366.38
2019-03-08T14:03:23.900Z,99365.48
2019-03-08T14:05:51.130Z,99371.66
2019-03-08T14:08:18.410Z,99385.55
2019-03-08T14:10:45.415Z,99376.77
2019-03-08T14:13:12.357Z,99368.92
2019-03-08T14:15:40.468Z,99372.70
2019-03-08T14:18:07.439Z,99376.38
2019-03-08T14:20:34.431Z,99375.39
2019-03-08T14:23:01.859Z,99384.58
2019-03-08T14:25:28.858Z,99392.19
2019-03-08T14:27:57.042Z,99382.36
2019-03-08T14:30:26.761Z,99383.58
2019-03-08T14:32:53.348Z,99386.60
2019-03-08T14:35:20.295Z,99398.95
2019-03-08T14:37:47.582Z,99411.29
2019-03-08T14:40:17.135Z,99410.86
2019-03-08T14:42:43.582Z,99408.84
2019-03-08T14:45:10.556Z,99418.65
2019-03-08T14:47:37.862Z,99414.23
2019-03-08T14:50:06.898Z,99419.91
2019-03-08T14:52:33.941Z,99418.06
2019-03-08T14:55:01.234Z,99420.16
2019-03-08T14:57:29.410Z,99417.17
2019-03-08T14:59:57.054Z,99415.99
2019-03-08T15:02:24.099Z,99426.20
2019-03-08T15:04:51.351Z,99425.72
2019-03-08T15:07:18.226Z,99429.04
2019-03-08T15:09:45.601Z,99438.38
2019-03-08T15:12:16.511Z,99452.10
2019-03-08T15:14:41.171Z,99465.53
2019-03-08T15:17:09.379Z,99465.98
2019-03-08T15:19:40.302Z,99478.78
2019-03-08T15:22:05.638Z,99490.66
2019-03-08T15:24:38.256Z,99505.63
2019-03-08T15:27:02.334Z,99514.66
2019-03-08T15:29:31.602Z,99523.20
2019-03-08T15:31:58.921Z,99538.10
2019-03-08T15:34:25.902Z,99529.37
2019-03-08T15:36:53.306Z,99525.24
2019-03-08T15:39:20.693Z,99521.92
2019-03-08T15:41:48.276Z,99501.09
2019-03-08T15:44:15.230Z,99488.75
2019-03-08T15:46:42.624Z,99485.78
2019-03-08T15:49:09.883Z,99495.15
2019-03-08T15:51:38.304Z,99507.77
2019-03-08T15:54:07.007Z,99506.03
2019-03-08T15:56:34.322Z,99503.41
2019-03-08T15:59:03.332Z,99513.59
2019-03-08T16:01:30.242Z,99509.47
2019-03-08T16:03:57.290Z,99512.63
2019-03-08T16:06:24.356Z,99515.70
2019-03-08T16:08:51.606Z,99523.34
2019-03-08T16:11:18.973Z,99531.02
2019-03-08T16:13:46.026Z,99535.61
2019-03-08T16:16:13.002Z,99538.66
2019-03-08T16:18:43.508Z,99544.02
2019-03-08T16:21:08.581Z,99543.99
2019-03-08T16:23:35.944Z,99544.41
2019-03-08T16:26:03.159Z,99552.86
2019-03-08T16:28:30.489Z,99557.64
2019-03-08T16:30:57.807Z,99563.12
2019-03-08T16:33:25.180Z,99563.16
2019-03-08T16:35:54.235Z,99556.33
2019-03-08T16:38:21.130Z,99558.37
2019-03-08T16:40:48.096Z,99562.23
2019-03-08T16:43:15.048Z,99576.59
2019-03-08T16:45:42.720Z,99571.61
2019-03-08T16:48:11.044Z,99580.13
2019-03-08T16:50:38.323Z,99579.21
2019-03-08T16:53:06.347Z,99573.73
2019-03-08T16:55:33.324Z,99569.03
2019-03-08T16:58:01.680Z,99571.50
2019-03-08T17:00:28.652Z,99580.38
2019-03-08T17:02:55.975Z,99579.95
2019-03-08T17:05:23.279Z,99573.55
2019-03-08T17:07:50.628Z,99582.50
2019-03-08T17:10:19.001Z,99583.31
2019-03-08T17:12:46.040Z,99591.87
2019-03-08T17:15:12.978Z,99597.84
2019-03-08T17:17:40.206Z,99600.81
2019-03-08T17:20:07.395Z,99607.15
2019-03-08T17:22:34.300Z,99615.18
2019-03-08T17:25:01.592Z,99625.47
2019-03-08T17:27:28.581Z,99625.56
2019-03-08T17:29:55.575Z,99634.94
2019-03-08T17:32:22.517Z,99631.12
2019-03-08T17:34:49.768Z,99639.14
2019-03-08T17:37:16.747Z,99644.66
2019-03-08T17:39:44.074Z,99647.31
2019-03-08T17:42:11.019Z,99643.16
2019-03-08T17:44:37.964Z,99652.08
2019-03-08T17:47:06.035Z,99654.26
2019-03-08T17:49:32.976Z,99661.05
2019-03-08T17:52:00.040Z,99665.87
2019-03-08T17:54:28.593Z,99662.09
2019-03-08T17:56:57.294Z,99664.63
2019-03-08T17:59:24.191Z,99662.91
2019-03-08T18:01:51.506Z,99665.48
2019-03-08T18:04:18.715Z,99667.36
2019-03-08T18:06:45.690Z,99661.09
2019-03-08T18:09:12.555Z,99670.48
2019-03-08T18:11:39.525Z,99679.11
2019-03-08T18:14:08.997Z,99677.02
2019-03-08T18:16:36.570Z,99674.08
2019-03-08T18:19:03.557Z,99677.05
2019-03-08T18:21:31.864Z,99677.87
2019-03-08T18:23:58.833Z,99683.80
2019-03-08T18:26:26.062Z,99693.14
2019-03-08T18:28:53.323Z,99699.01
2019-03-08T18:31:23.492Z,99699.83
2019-03-08T18:33:50.699Z,99698.11
2019-03-08T18:36:17.938Z,99701.13
2019-03-08T18:38:45.105Z,99706.64
2019-03-08T18:41:12.361Z,99706.64
2019-03-08T18:43:39.332Z,99710.03
2019-03-08T18:46:06.270Z,99711.28
2019-03-08T18:48:33.485Z,99715.06
2019-03-08T18:51:00.482Z,99710.44
2019-03-08T18:53:27.728Z,99714.25
2019-03-08T18:55:54.704Z,99719.37
2019-03-08T18:58:21.659Z,99717.70
2019-03-08T19:00:49.682Z,99718.58
2019-03-08T19:03:16.641Z,99720.66
2019-03-08T19:05:43.605Z,99727.98
2019-03-08T19:08:10.937Z,99725.50
2019-03-08T19:10:37.894Z,99728.55
2019-03-08T19:13:04.837Z,99734.14
2019-03-08T19:15:31.803Z,99743.14
2019-03-08T19:17:59.084Z,99746.61
2019-03-08T19:20:25.989Z,99752.05
2019-03-08T19:22:53.154Z,99757.52
2019-03-08T19:25:21.090Z,99759.17
2019-03-08T19:27:47.975Z,99768.81
2019-03-08T19:30:18.499Z,99761.56
2019-03-08T19:32:45.526Z,99767.04
2019-03-08T19:35:12.845Z,99765.31
2019-03-08T19:37:41.469Z,99756.84
2019-03-08T19:40:08.784Z,99761.11
2019-03-08T19:42:35.759Z,99757.74
2019-03-08T19:45:02.982Z,99762.38
2019-03-08T19:47:31.865Z,99759.39
2019-03-08T19:50:00.327Z,99757.27
2019-03-08T19:52:27.597Z,99763.20
2019-03-08T19:54:55.022Z,99767.02
2019-03-08T19:59:56.064Z,99762.80
2019-03-08T20:02:24.667Z,99762.06
2019-03-08T20:04:52.624Z,99762.06
2019-03-08T20:07:20.027Z,99765.88
2019-03-08T20:09:46.977Z,99759.52
2019-03-08T20:12:14.310Z,99757.37
2019-03-08T20:14:41.256Z,99756.13
2019-03-08T20:17:08.228Z,99754.91
2019-03-08T20:19:35.263Z,99756.63
2019-03-08T20:22:02.253Z,99756.20
2019-03-08T20:24:29.576Z,99756.25
2019-03-08T20:26:56.673Z,99754.61
2019-03-08T20:29:23.728Z,99753.77
2019-03-08T20:31:50.797Z,99756.36
2019-03-08T20:34:17.898Z,99757.23
2019-03-08T20:36:45.192Z,99757.73
2019-03-08T20:39:12.218Z,99756.04
2019-03-08T20:41:39.515Z,99752.65
2019-03-08T20:44:06.691Z,99748.44
2019-03-08T20:46:35.170Z,99747.19
2019-03-08T20:49:02.814Z,99744.69
2019-03-08T20:51:29.848Z,99754.91
2019-03-08T20:53:56.743Z,99754.98
2019-03-08T20:56:24.055Z,99760.48
2019-03-08T20:58:51.015Z,99760.92
2019-03-08T21:01:18.357Z,99765.13
2019-03-08T21:03:45.476Z,99765.20
2019-03-08T21:06:12.373Z,99761.02
2019-03-08T21:08:39.313Z,99762.70
2019-03-08T21:11:06.440Z,99765.23
2019-03-08T21:13:33.415Z,99763.95
2019-03-08T21:16:01.377Z,99766.94
2019-03-08T21:18:28.507Z,99769.92
2019-03-08T21:20:55.470Z,99769.53
2019-03-08T21:23:22.706Z,99765.78
2019-03-08T21:25:51.081Z,99762.42
2019-03-08T21:28:18.375Z,99760.80
2019-03-08T21:30:45.570Z,99767.63
2019-03-08T21:33:14.341Z,99761.34
2019-03-08T21:35:41.500Z,99765.59
2019-03-08T21:38:09.659Z,99766.02
2019-03-08T21:40:36.919Z,99761.78
2019-03-08T21:43:03.882Z,99761.40
2019-03-08T21:45:30.862Z,99750.47
2019-03-08T21:47:58.045Z,99762.31
2019-03-08T21:50:24.986Z,99759.36
2019-03-08T21:52:52.017Z,99764.84
2019-03-08T21:55:18.894Z,99760.61
2019-03-08T21:57:46.303Z,99759.31
2019-03-08T22:00:13.561Z,99763.94
2019-03-08T22:02:41.173Z,99763.08
2019-03-08T22:05:08.111Z,99756.28
2019-03-08T22:07:35.462Z,99760.00
2019-03-08T22:10:02.397Z,99762.50
2019-03-08T22:12:30.549Z,99757.42
2019-03-08T22:14:57.785Z,99756.13
2019-03-08T22:17:25.038Z,99751.44
2019-03-08T22:19:51.989Z,99748.02
2019-03-08T22:22:19.290Z,99749.25
2019-03-08T22:24:46.494Z,99754.28
2019-03-08T22:27:14.853Z,99747.53
2019-03-08T22:29:41.782Z,99743.25
2019-03-08T22:32:09.255Z,99737.27
2019-03-08T22:34:36.431Z,99731.30
2019-03-08T22:37:03.414Z,99730.02
2019-03-08T22:39:30.382Z,99724.92
2019-03-08T22:41:57.328Z,99732.60
2019-03-08T22:44:24.293Z,99722.41
2019-03-08T22:46:51.568Z,99716.05
2019-03-08T22:49:18.614Z,99704.22
2019-03-08T22:51:47.505Z,99701.73
2019-03-08T22:54:14.489Z,99695.00
2019-03-08T22:56:41.427Z,99700.48
2019-03-08T22:59:08.758Z,99708.08
2019-03-08T23:01:36.002Z,99708.91
2019-03-08T23:04:02.968Z,99705.49
2019-03-08T23:06:29.998Z,99706.37
2019-03-08T23:08:57.247Z,99706.77
2019-03-08T23:11:24.199Z,99703.80
2019-03-08T23:13:51.443Z,99698.23
2019-03-08T23:16:18.333Z,99697.39
2019-03-08T23:18:45.764Z,99696.55
2019-03-08T23:21:12.812Z,99689.31
2019-03-08T23:23:40.048Z,99683.39
2019-03-08T23:26:06.950Z,99683.44
2019-03-08T23:28:33.973Z,99688.95
2019-03-08T23:31:00.941Z,99676.66
2019-03-08T23:33:28.143Z,99675.38
2019-03-08T23:35:55.086Z,99666.05
2019-03-08T23:38:21.977Z,99663.89
2019-03-08T23:40:48.984Z,99663.89
2019-03-08T23:43:17.012Z,99658.79
2019-03-08T23:45:43.973Z,99654.09
2019-03-08T23:48:10.938Z,99650.29
2019-03-08T23:50:38.089Z,99642.27
2019-03-08T23:53:05.340Z,99639.73
2019-03-08T23:55:32.603Z,99645.59
2019-03-08T23:57:59.850Z,99642.55
